Gabu Reefer — D6FJ2 — position and weather

sailwx.info

Track history (hours):
 
Tides and Currents Weather Stations Pressure Air Temp Water Temp Dewpoint Dewpoint Depression Visibility Wind Speed Wind Dir Waves Ship Positions

Gabu Reefer

Last reported at 2018-Feb-04 14:24 UTC. Time now 2018-Feb-17 21:41 UTC.
Position N 09°22' W 016°05'.
Warning: this ship's position is 13 days out of date.

Type: Cargo ship. MMSI: 61685200.

Date/timePositionNaut miles runAvg speedWind from/ knotsBaromVisibWave heightAir tempDewpointWater temp
2018-Feb-04 14:24N 09°22' W 016°05'16 8.8
2018-Feb-04 12:33N 09°36' W 016°13'0 8.2
2018-Feb-04 12:30N 09°36' W 016°13'5 8.6
2018-Feb-04 11:58N 09°40' W 016°15'4 8.6
2018-Feb-04 11:30N 09°44' W 016°17'13 8.5
2018-Feb-04 09:58N 09°55' W 016°23'9 8.9
2018-Feb-04 08:59N 10°03' W 016°28'4 9.1
2018-Feb-04 08:30N 10°07' W 016°30'5 8.9
2018-Feb-04 07:55N 10°11' W 016°33'16 8.9
2018-Feb-04 06:06N 10°25' W 016°41'1 9.0
2018-Feb-04 06:00N 10°26' W 016°41'5 9.0
2018-Feb-04 05:29N 10°30' W 016°43'  
Track history (hours):
 
Tides and Currents Weather Stations Pressure Air Temp Water Temp Dewpoint Dewpoint Depression Visibility Wind Speed Wind Dir Waves Ship Positions

Gabu Reefer

Last reported at 2018-Feb-04 14:24 UTC. Time now 2018-Feb-17 21:41 UTC.
Position N 09°22' W 016°05'.
Warning: this ship's position is 13 days out of date.

Type: Cargo ship. MMSI: 61685200.

Date/timePositionNaut miles runAvg speedWind from/ knotsBaromVisibWave heightAir tempDewpointWater temp
2018-Feb-04 14:24N 09°22' W 016°05'16 8.8
2018-Feb-04 12:33N 09°36' W 016°13'0 8.2
2018-Feb-04 12:30N 09°36' W 016°13'5 8.6
2018-Feb-04 11:58N 09°40' W 016°15'4 8.6
2018-Feb-04 11:30N 09°44' W 016°17'13 8.5
2018-Feb-04 09:58N 09°55' W 016°23'9 8.9
2018-Feb-04 08:59N 10°03' W 016°28'4 9.1
2018-Feb-04 08:30N 10°07' W 016°30'5 8.9
2018-Feb-04 07:55N 10°11' W 016°33'16 8.9
2018-Feb-04 06:06N 10°25' W 016°41'1 9.0
2018-Feb-04 06:00N 10°26' W 016°41'5 9.0
2018-Feb-04 05:29N 10°30' W 016°43'  

Dump ship's entire track history